Time;durP1;ratioP1;P1;durP2;ratioP2;P2;SDS_P1;SDS_P2;PMS_P1;PMS_P2;Temp;Humidity;BMP_temperature;BMP_pressure;BME280_temperature;BME280_humidity;BME280_pressure;Samples;Min_cycle;Max_cycle;Signal;HPM_P1;HPM_P2
2021/03/19 00:00:07;;;;;;;9.95;7.22;;;;;;;1.67;80.19;99000.38;1735004;82;21202;-70
2021/03/19 00:02:38;;;;;;;12.28;7.80;;;;;;;1.62;80.34;99001.89;1726226;82;21583;-70
2021/03/19 00:05:09;;;;;;;11.95;7.85;;;;;;;1.56;80.49;98999.55;1735831;82;21560;-69
2021/03/19 00:07:46;;;;;;;12.73;8.60;;;;;;;1.53;80.50;98998.41;1748319;82;21771;-69
2021/03/19 00:10:17;;;;;;;13.35;8.28;;;;;;;1.64;80.19;98995.69;1734702;82;21167;-69
2021/03/19 00:12:46;;;;;;;11.12;7.42;;;;;;;1.60;80.35;98995.92;1747377;82;21309;-69
2021/03/19 00:15:16;;;;;;;10.68;6.70;;;;;;;1.50;80.58;98995.92;1752963;81;21159;-69
2021/03/19 00:17:43;;;;;;;9.40;6.85;;;;;;;1.50;80.60;98992.01;1727193;82;21150;-69
2021/03/19 00:20:13;;;;;;;8.58;6.70;;;;;;;1.64;80.26;98989.64;1720966;83;21195;-69
2021/03/19 00:22:41;;;;;;;9.35;7.08;;;;;;;1.58;80.35;98986.01;1726217;82;21598;-69
2021/03/19 00:25:10;;;;;;;9.20;6.70;;;;;;;1.50;80.54;98995.92;1749003;82;21170;-69
2021/03/19 00:27:37;;;;;;;8.83;6.67;;;;;;;1.49;80.58;98993.78;1732978;82;21313;-69
2021/03/19 00:30:12;;;;;;;10.20;7.58;;;;;;;1.59;80.24;98984.63;1734954;82;21195;-69
2021/03/19 00:32:41;;;;;;;8.38;5.78;;;;;;;1.55;80.44;98993.51;1751439;82;21818;-69
2021/03/19 00:35:10;;;;;;;9.68;6.03;;;;;;;1.45;80.71;98983.95;1742601;82;21158;-69
2021/03/19 00:37:37;;;;;;;8.10;5.58;;;;;;;1.40;80.88;98984.61;1746293;82;21111;-69
2021/03/19 00:40:11;;;;;;;8.58;6.08;;;;;;;1.50;80.67;98982.89;1732610;82;21576;-69
2021/03/19 00:42:39;;;;;;;8.78;6.15;;;;;;;1.46;80.60;98983.51;1750361;82;21127;-69
2021/03/19 00:45:10;;;;;;;9.63;6.20;;;;;;;1.35;80.91;98985.75;1753159;82;21158;-69
2021/03/19 00:47:38;;;;;;;7.75;5.80;;;;;;;1.30;81.07;98985.94;1728962;82;21643;-69
2021/03/19 00:50:09;;;;;;;8.23;5.65;;;;;;;1.42;80.83;98982.80;1751006;82;21170;-69
2021/03/19 00:52:37;;;;;;;7.30;5.30;;;;;;;1.53;80.53;98976.25;1732456;82;21131;-69
2021/03/19 00:55:10;;;;;;;7.35;5.35;;;;;;;1.50;80.67;98977.67;1723246;83;21159;-69
2021/03/19 00:57:37;;;;;;;7.17;4.95;;;;;;;1.39;80.79;98980.78;1725092;82;21146;-69
2021/03/19 01:00:07;;;;;;;8.33;5.47;;;;;;;1.41;80.69;98994.13;1737986;82;21296;-69
2021/03/19 01:02:34;;;;;;;7.58;5.72;;;;;;;1.49;80.33;98980.75;1745571;82;21146;-69
2021/03/19 01:05:10;;;;;;;10.23;6.40;;;;;;;1.42;80.50;98985.41;1740011;82;21151;-69
2021/03/19 01:07:39;;;;;;;7.97;5.58;;;;;;;1.34;80.74;98981.45;1723259;83;21510;-69
2021/03/19 01:10:12;;;;;;;8.73;5.37;;;;;;;1.26;80.92;98980.02;1747146;82;21300;-69
2021/03/19 01:12:40;;;;;;;9.08;5.67;;;;;;;1.35;80.58;98982.67;1738230;82;21167;-69
2021/03/19 01:15:09;;;;;;;7.92;5.42;;;;;;;1.38;80.48;98989.06;1725884;82;21166;-69
2021/03/19 01:17:38;;;;;;;7.97;5.42;;;;;;;1.25;80.67;98987.91;1753035;82;21127;-69
2021/03/19 01:20:09;;;;;;;6.85;5.08;;;;;;;1.19;80.88;98979.05;1751286;81;21159;-69
2021/03/19 01:22:36;;;;;;;7.40;5.33;;;;;;;1.26;80.71;98979.19;1723209;83;21169;-69
2021/03/19 01:25:06;;;;;;;8.70;6.05;;;;;;;1.28;80.66;98982.58;1725135;82;21163;-69
2021/03/19 01:27:34;;;;;;;8.15;5.25;;;;;;;1.22;80.81;98984.15;1746754;82;21180;-69
2021/03/19 01:30:03;;;;;;;8.20;6.12;;;;;;;1.09;81.05;98989.89;1751304;82;21147;-69
2021/03/19 01:32:30;;;;;;;8.58;6.08;;;;;;;1.19;80.83;98995.98;1745891;82;21350;-69
2021/03/19 01:34:57;;;;;;;10.18;5.83;;;;;;;1.25;80.69;98997.02;1726882;82;21130;-69
2021/03/19 01:37:27;;;;;;;9.98;6.03;;;;;;;1.17;80.92;98988.25;1723109;83;21140;-69
2021/03/19 01:39:55;;;;;;;9.08;5.80;;;;;;;1.10;81.11;98997.23;1741279;82;21146;-69
2021/03/19 01:42:22;;;;;;;11.30;5.83;;;;;;;1.18;80.94;98989.08;1752621;82;21158;-69
2021/03/19 01:45:21;;;;;;;8.95;6.10;;;;;;;1.28;80.66;98989.92;1753154;82;21171;-69
2021/03/19 01:48:44;;;;;;;8.13;6.05;;;;;;;1.22;80.77;98993.27;1727085;82;21143;-69
2021/03/19 01:52:09;;;;;;;8.05;6.00;;;;;;;1.11;81.07;98993.72;1726483;82;21311;-68
2021/03/19 01:55:32;;;;;;;9.98;6.53;;;;;;;1.19;80.91;98989.03;1723338;83;21182;-69
2021/03/19 01:58:56;;;;;;;9.28;6.20;;;;;;;1.22;80.73;98991.96;1732225;82;21312;-68
2021/03/19 02:02:19;;;;;;;12.78;7.58;;;;;;;1.10;81.09;98995.92;1737016;82;21119;-69
2021/03/19 02:05:42;;;;;;;14.20;7.85;;;;;;;1.09;81.11;98998.17;1748443;82;21273;-69
2021/03/19 02:09:06;;;;;;;14.25;8.83;;;;;;;1.20;80.84;98998.98;1725368;82;21170;-69
2021/03/19 02:12:30;;;;;;;14.45;7.80;;;;;;;1.07;81.21;99000.81;1748090;82;21305;-69
2021/03/19 02:15:53;;;;;;;12.55;6.85;;;;;;;1.08;81.26;99007.72;1724543;82;21119;-69
2021/03/19 02:19:17;;;;;;;15.23;7.12;;;;;;;1.19;80.88;98999.89;1723887;82;21190;-69
2021/03/19 02:22:42;;;;;;;13.78;7.15;;;;;;;1.06;81.12;99009.56;1723432;82;21647;-69
2021/03/19 02:26:05;;;;;;;11.28;6.05;;;;;;;1.00;81.28;99001.14;1723188;83;21186;-69
2021/03/19 02:29:28;;;;;;;9.95;5.95;;;;;;;1.12;80.97;99002.76;1723182;83;21191;-69
2021/03/19 02:32:13;;;;;;;9.68;6.30;;;;;;;0.99;81.20;99009.42;1738043;82;21167;-69
2021/03/19 02:34:52;;;;;;;8.70;6.25;;;;;;;0.89;81.50;99011.56;1731033;82;21258;-69
2021/03/19 02:37:22;;;;;;;10.82;6.92;;;;;;;1.02;81.14;99010.58;1723186;83;21155;-69
2021/03/19 02:39:50;;;;;;;11.25;6.95;;;;;;;1.00;81.20;99009.82;1743374;82;21584;-69
2021/03/19 02:42:21;;;;;;;11.60;7.25;;;;;;;0.94;81.50;99012.69;1753086;82;21132;-69
2021/03/19 02:44:48;;;;;;;9.73;7.60;;;;;;;0.89;81.70;99015.94;1751532;82;21183;-69
2021/03/19 02:47:15;;;;;;;9.78;7.40;;;;;;;1.00;81.47;99015.03;1738999;82;21191;-68
2021/03/19 02:49:43;;;;;;;11.33;7.12;;;;;;;1.10;81.25;99021.53;1753031;82;21313;-68
2021/03/19 02:52:12;;;;;;;10.50;7.60;;;;;;;1.06;81.49;99026.92;1750222;82;21123;-69
2021/03/19 02:54:40;;;;;;;10.63;7.22;;;;;;;1.00;81.61;99030.66;1728578;82;21842;-69
2021/03/19 02:57:07;;;;;;;8.63;6.30;;;;;;;1.00;81.49;99033.69;1753048;82;21282;-69
2021/03/19 02:59:34;;;;;;;8.18;6.78;;;;;;;1.08;81.09;99027.25;1752303;82;21206;-69
2021/03/19 03:02:02;;;;;;;9.90;7.47;;;;;;;1.08;81.10;99031.63;1723916;82;21357;-70
2021/03/19 03:04:30;;;;;;;10.68;7.22;;;;;;;0.98;81.33;99030.73;1743614;82;21663;-70
2021/03/19 03:06:58;;;;;;;9.65;7.05;;;;;;;0.93;81.56;99040.92;1723176;83;21155;-70
2021/03/19 03:09:29;;;;;;;8.55;6.67;;;;;;;0.99;81.51;99031.55;1731321;82;21119;-70
2021/03/19 03:11:56;;;;;;;8.65;6.87;;;;;;;1.12;81.04;99040.52;1738473;82;21162;-70
2021/03/19 03:14:27;;;;;;;10.15;7.12;;;;;;;1.08;81.04;99041.58;1745560;82;21151;-69
2021/03/19 03:17:00;;;;;;;9.70;6.37;;;;;;;1.00;81.17;99043.67;1753049;82;21131;-69
2021/03/19 03:19:27;;;;;;;8.95;6.05;;;;;;;0.91;81.42;99049.24;1753345;82;21557;-69
2021/03/19 03:21:55;;;;;;;8.40;6.90;;;;;;;0.98;81.14;99045.48;1753405;82;21564;-69
2021/03/19 03:24:24;;;;;;;10.75;7.83;;;;;;;1.03;81.00;99051.34;1732572;81;21167;-69
2021/03/19 03:26:52;;;;;;;11.93;7.80;;;;;;;0.91;81.26;99041.44;1742882;82;21139;-69
2021/03/19 03:29:20;;;;;;;9.80;6.80;;;;;;;0.81;81.42;99039.69;1753366;82;21667;-69
2021/03/19 03:31:48;;;;;;;8.63;6.55;;;;;;;0.85;81.43;99054.73;1739038;82;21496;-69
2021/03/19 03:34:16;;;;;;;8.95;6.70;;;;;;;0.92;81.18;99044.00;1736447;82;21178;-69
2021/03/19 03:36:43;;;;;;;11.05;8.03;;;;;;;0.84;81.23;99044.75;1752983;82;21142;-69
2021/03/19 03:39:18;;;;;;;10.80;7.80;;;;;;;0.74;81.46;99048.22;1752939;82;21195;-69
2021/03/19 03:41:45;;;;;;;12.45;8.95;;;;;;;0.83;81.40;99053.47;1753029;82;21564;-69
2021/03/19 03:44:17;;;;;;;18.05;10.58;;;;;;;0.93;81.14;99044.39;1753086;82;21202;-69
2021/03/19 03:46:45;;;;;;;17.85;11.12;;;;;;;0.87;81.31;99052.89;1752354;82;21277;-70
2021/03/19 03:49:14;;;;;;;13.48;9.80;;;;;;;0.77;81.59;99048.08;1723166;83;21199;-70
2021/03/19 03:51:43;;;;;;;11.38;8.83;;;;;;;0.77;81.62;99049.38;1723279;83;21206;-69
2021/03/19 03:54:10;;;;;;;14.20;9.73;;;;;;;0.90;81.29;99047.11;1723518;82;22097;-69
2021/03/19 03:56:38;;;;;;;10.93;8.43;;;;;;;0.87;81.38;99041.17;1751495;82;21620;-69
2021/03/19 03:59:06;;;;;;;11.70;8.40;;;;;;;0.82;81.53;99042.69;1753067;82;21312;-69
2021/03/19 04:01:36;;;;;;;10.00;7.37;;;;;;;0.86;81.48;99043.38;1753117;82;21576;-69
2021/03/19 04:04:05;;;;;;;10.50;7.17;;;;;;;0.98;81.02;99043.74;1752993;82;21127;-68
2021/03/19 04:06:32;;;;;;;11.63;8.58;;;;;;;0.90;81.10;99041.06;1725626;82;21612;-69
2021/03/19 04:09:00;;;;;;;12.18;7.83;;;;;;;0.80;81.33;99049.23;1731612;82;21155;-69
2021/03/19 04:11:27;;;;;;;11.05;7.30;;;;;;;0.80;81.36;99051.84;1753451;82;21178;-69
2021/03/19 04:13:55;;;;;;;10.55;6.80;;;;;;;0.91;81.11;99047.94;1753407;82;21592;-69
2021/03/19 04:16:22;;;;;;;12.53;8.48;;;;;;;0.87;81.19;99047.25;1725558;82;21171;-69
2021/03/19 04:18:50;;;;;;;11.90;7.55;;;;;;;0.79;81.38;99054.08;1723224;83;21178;-69
2021/03/19 04:21:17;;;;;;;10.25;7.58;;;;;;;0.80;81.47;99059.65;1711976;83;21734;-70
2021/03/19 04:23:47;;;;;;;9.70;7.40;;;;;;;0.97;81.01;99062.87;1723903;82;21188;-70
2021/03/19 04:26:28;;;;;;;10.72;7.35;;;;;;;0.98;80.88;99054.16;1739269;82;21191;-71
2021/03/19 04:28:56;;;;;;;11.48;7.33;;;;;;;0.86;81.00;99057.27;1739255;82;21108;-70
2021/03/19 04:31:23;;;;;;;8.75;6.15;;;;;;;0.76;81.25;99052.05;1739234;82;21325;-69
2021/03/19 04:33:50;;;;;;;10.35;7.80;;;;;;;0.86;80.98;99057.70;1737612;82;21140;-69
2021/03/19 04:36:38;;;;;;;11.63;8.15;;;;;;;0.87;80.92;99056.80;1710242;82;21156;-69
2021/03/19 04:39:06;;;;;;;11.35;6.92;;;;;;;0.78;81.18;99061.92;1736621;82;21183;-69
2021/03/19 04:41:33;;;;;;;8.25;6.47;;;;;;;0.69;81.42;99057.11;1739265;82;21289;-68
2021/03/19 04:44:01;;;;;;;10.50;7.33;;;;;;;0.85;81.13;99057.33;1738596;81;21179;-69
2021/03/19 04:46:29;;;;;;;9.63;6.45;;;;;;;0.87;80.99;99055.50;1718892;82;21326;-69
2021/03/19 04:48:57;;;;;;;10.80;7.58;;;;;;;0.78;81.20;99058.89;1739166;82;21179;-68
2021/03/19 04:51:24;;;;;;;8.98;6.60;;;;;;;0.69;81.39;99065.78;1739286;82;21187;-69
2021/03/19 04:53:53;;;;;;;10.00;6.35;;;;;;;0.77;81.17;99062.39;1723284;82;21108;-69
2021/03/19 04:59:00;;;;;;;9.83;6.87;;;;;;;0.76;81.05;99058.55;1780323;79;22856;-69
2021/03/19 05:01:30;;;;;;;10.13;7.10;;;;;;;0.64;81.43;99054.71;1752963;82;21147;-70
2021/03/19 05:03:58;;;;;;;11.40;7.25;;;;;;;0.69;81.38;99061.88;1752846;82;21127;-69
2021/03/19 05:06:25;;;;;;;11.93;7.83;;;;;;;0.81;81.11;99062.66;1742857;82;21171;-69
2021/03/19 05:08:52;;;;;;;9.88;6.87;;;;;;;0.73;81.17;99057.36;1723333;83;21198;-69
2021/03/19 05:11:19;;;;;;;11.12;7.30;;;;;;;0.58;81.47;99062.30;1723225;83;21329;-69
2021/03/19 05:13:47;;;;;;;11.15;7.80;;;;;;;0.64;81.36;99062.52;1722950;83;21178;-69
2021/03/19 05:16:15;;;;;;;9.98;7.37;;;;;;;0.74;81.10;99069.04;1751631;82;21131;-69
2021/03/19 05:18:44;;;;;;;11.35;7.47;;;;;;;0.67;81.23;99068.05;1752633;82;21587;-69
2021/03/19 05:21:11;;;;;;;10.60;6.92;;;;;;;0.61;81.41;99079.06;1747872;82;21170;-69
2021/03/19 05:23:38;;;;;;;9.43;7.00;;;;;;;0.74;81.17;99074.68;1753094;82;21687;-69
2021/03/19 05:26:05;;;;;;;10.05;7.55;;;;;;;0.85;80.91;99070.35;1752835;82;21154;-69
2021/03/19 05:28:34;;;;;;;9.63;6.72;;;;;;;0.83;80.97;99066.95;1752918;81;21186;-69
2021/03/19 05:31:02;;;;;;;10.68;6.78;;;;;;;0.78;81.06;99075.80;1744296;81;21139;-69
2021/03/19 05:33:47;;;;;;;9.25;6.53;;;;;;;0.81;80.90;99071.76;1728481;82;21206;-69
2021/03/19 05:36:17;;;;;;;19.10;13.13;;;;;;;0.91;80.42;99068.33;1723956;82;21119;-69
2021/03/19 05:38:45;;;;;;;13.68;9.50;;;;;;;0.86;80.62;99079.39;1729862;82;21602;-70
2021/03/19 05:41:13;;;;;;;13.22;7.95;;;;;;;0.79;80.76;99078.80;1727366;83;21138;-70
2021/03/19 05:43:57;;;;;;;11.55;7.83;;;;;;;0.85;80.70;99075.09;1735602;83;21206;-70
2021/03/19 05:46:44;;;;;;;11.63;7.95;;;;;;;1.00;80.37;99084.03;1730893;82;21162;-69
2021/03/19 05:49:19;;;;;;;11.00;7.83;;;;;;;0.89;80.38;99085.77;1731467;82;21285;-70
2021/03/19 05:51:58;;;;;;;13.43;8.23;;;;;;;0.81;80.68;99087.37;1725222;82;21186;-70
2021/03/19 05:54:35;;;;;;;13.65;8.48;;;;;;;0.89;80.57;99092.73;1724496;82;21776;-70
2021/03/19 05:57:31;;;;;;;15.63;8.58;;;;;;;1.01;80.26;99092.23;1732824;82;21379;-70
2021/03/19 06:00:00;;;;;;;14.87;9.03;;;;;;;0.99;80.38;99090.14;1713147;83;21159;-70
2021/03/19 06:02:38;;;;;;;12.80;8.60;;;;;;;0.90;80.41;99100.95;1717029;83;21569;-70
2021/03/19 06:05:17;;;;;;;12.68;8.75;;;;;;;0.98;80.16;99100.16;1721100;83;21584;-70
2021/03/19 06:07:50;;;;;;;12.80;8.70;;;;;;;1.09;79.99;99101.03;1706419;83;21294;-70
2021/03/19 06:10:39;;;;;;;11.83;8.70;;;;;;;1.01;79.94;99109.16;1697910;84;21195;-69
2021/03/19 06:13:29;;;;;;;12.63;7.50;;;;;;;0.93;80.22;99109.92;1707056;84;21642;-68
2021/03/19 06:16:32;;;;;;;13.65;8.50;;;;;;;1.03;80.16;99118.21;1675330;85;21187;-68
2021/03/19 06:19:22;;;;;;;12.33;8.38;;;;;;;1.15;79.76;99117.68;1692721;84;21372;-68
2021/03/19 06:21:50;;;;;;;12.75;7.47;;;;;;;1.01;80.05;99118.72;1641394;87;21285;-69
2021/03/19 06:24:24;;;;;;;10.58;7.05;;;;;;;0.95;80.43;99115.92;1702711;84;21163;-69
2021/03/19 06:26:53;;;;;;;12.23;8.05;;;;;;;1.06;80.05;99122.84;1690008;85;21171;-70
2021/03/19 06:29:33;;;;;;;11.00;7.53;;;;;;;1.08;79.98;99128.81;1690002;85;21159;-68
2021/03/19 06:32:09;;;;;;;10.68;7.45;;;;;;;1.01;80.14;99118.28;1703559;83;21205;-68
2021/03/19 06:35:07;;;;;;;13.75;9.05;;;;;;;0.96;80.39;99123.66;1704869;84;22250;-68
2021/03/19 06:37:47;;;;;;;11.45;7.40;;;;;;;1.12;80.08;99125.16;1704546;84;21191;-69
2021/03/19 06:40:35;;;;;;;14.43;8.00;;;;;;;1.13;79.68;99120.36;1704352;84;21144;-69
2021/03/19 06:43:25;;;;;;;11.35;7.67;;;;;;;1.05;79.88;99128.95;1704654;84;21748;-69
2021/03/19 06:46:14;;;;;;;12.47;8.30;;;;;;;1.02;79.91;99127.76;1704762;84;21306;-70
2021/03/19 06:48:58;;;;;;;12.20;8.40;;;;;;;1.19;79.70;99135.33;1704136;84;21155;-69
2021/03/19 06:51:35;;;;;;;12.07;8.25;;;;;;;1.14;79.88;99133.77;1689512;84;21495;-69
2021/03/19 06:54:16;;;;;;;11.63;8.48;;;;;;;1.10;80.09;99136.12;1706915;84;21120;-70
2021/03/19 06:57:06;;;;;;;13.00;9.15;;;;;;;1.22;79.99;99142.57;1697793;84;21159;-70
2021/03/19 06:59:55;;;;;;;16.20;9.88;;;;;;;1.40;79.46;99137.04;1685349;84;21214;-70
2021/03/19 07:02:59;;;;;;;14.35;9.20;;;;;;;1.40;79.42;99130.52;1658003;86;21198;-70
2021/03/19 07:05:55;;;;;;;14.35;9.38;;;;;;;1.32;79.48;99143.05;1657779;86;21182;-70
2021/03/19 07:08:34;;;;;;;11.75;8.30;;;;;;;1.39;79.38;99132.73;1657618;86;21341;-70
2021/03/19 07:11:23;;;;;;;14.93;9.90;;;;;;;1.44;79.20;99137.29;1657299;86;21190;-70
2021/03/19 07:14:09;;;;;;;17.15;10.20;;;;;;;1.38;79.48;99138.88;1661552;85;21304;-70
2021/03/19 07:17:02;;;;;;;14.00;9.35;;;;;;;1.35;79.74;99142.90;1627089;87;21638;-69
2021/03/19 07:20:06;;;;;;;15.10;10.08;;;;;;;1.58;79.61;99141.91;1644826;85;21189;-70
2021/03/19 07:23:04;;;;;;;14.85;10.35;;;;;;;1.68;79.17;99144.98;1682856;84;21614;-69
2021/03/19 07:26:06;;;;;;;15.43;10.43;;;;;;;1.61;79.52;99148.75;1683954;85;21190;-69
2021/03/19 07:28:49;;;;;;;14.65;9.60;;;;;;;1.57;79.66;99150.67;1685020;84;21800;-69
2021/03/19 07:31:43;;;;;;;15.78;10.43;;;;;;;1.77;78.96;99139.36;1685087;85;21199;-69
2021/03/19 07:34:39;;;;;;;15.98;9.73;;;;;;;1.73;78.95;99152.14;1670415;85;21179;-69
2021/03/19 07:37:29;;;;;;;15.53;10.58;;;;;;;1.65;78.94;99150.34;1681383;85;21202;-69
2021/03/19 07:40:39;;;;;;;14.25;9.80;;;;;;;1.58;79.03;99147.13;1683644;85;21559;-69
2021/03/19 07:43:35;;;;;;;17.48;11.95;;;;;;;1.78;78.97;99151.48;1684223;85;21667;-68
2021/03/19 07:46:36;;;;;;;18.82;11.83;;;;;;;1.84;78.95;99165.16;1641452;85;21347;-68
2021/03/19 07:49:50;;;;;;;19.30;12.30;;;;;;;1.78;79.12;99160.61;1657419;86;21658;-69
2021/03/19 07:52:56;;;;;;;17.15;11.33;;;;;;;1.66;79.07;99155.08;1678396;85;21301;-68
2021/03/19 07:55:54;;;;;;;21.82;13.40;;;;;;;1.76;78.76;99168.11;1679817;84;21170;-69
2021/03/19 07:58:35;;;;;;;17.05;11.85;;;;;;;1.73;78.58;99159.96;1692840;82;21317;-68
2021/03/19 08:01:20;;;;;;;20.20;12.37;;;;;;;1.59;78.90;99154.04;1725834;82;21986;-68
2021/03/19 08:03:53;;;;;;;17.35;11.65;;;;;;;1.54;79.09;99155.16;1705120;82;21453;-68
2021/03/19 08:06:22;;;;;;;16.87;11.15;;;;;;;1.65;78.80;99163.37;1707707;82;21294;-67
2021/03/19 08:09:34;;;;;;;16.97;11.60;;;;;;;1.75;78.65;99167.27;1708485;83;21124;-68
2021/03/19 08:12:07;;;;;;;14.45;10.08;;;;;;;1.71;78.83;99172.20;1706482;82;21151;-67
2021/03/19 08:15:08;;;;;;;15.25;11.12;;;;;;;1.70;79.27;99172.28;1709815;84;21658;-68
2021/03/19 08:17:59;;;;;;;17.95;12.00;;;;;;;1.89;79.04;99160.59;1657639;85;21210;-68
2021/03/19 08:20:32;;;;;;;26.48;18.02;;;;;;;2.03;78.43;99164.73;1677464;85;21746;-68
2021/03/19 08:23:23;;;;;;;17.90;12.73;;;;;;;2.03;78.87;99161.29;1729789;82;21347;-67
2021/03/19 08:25:52;;;;;;;18.17;12.40;;;;;;;2.03;78.77;99166.03;1744451;82;21636;-68
2021/03/19 08:28:43;;;;;;;18.02;11.35;;;;;;;2.21;78.49;99158.30;1719866;82;21111;-68
2021/03/19 08:31:33;;;;;;;16.42;11.48;;;;;;;2.42;77.76;99161.23;1709741;83;21152;-69
2021/03/19 08:34:25;;;;;;;21.40;14.13;;;;;;;2.49;77.82;99163.09;1710340;82;21326;-67
2021/03/19 08:36:53;;;;;;;13.58;8.85;;;;;;;2.52;77.78;99166.02;1717268;83;21857;-66
2021/03/19 08:39:43;;;;;;;13.43;9.40;;;;;;;2.63;76.97;99159.84;1717005;82;21568;-68
2021/03/19 08:42:36;;;;;;;16.17;11.43;;;;;;;2.88;76.24;99164.75;1709972;83;21166;-68
2021/03/19 08:45:12;;;;;;;19.40;12.98;;;;;;;2.88;75.78;99166.53;1708600;82;21181;-68
2021/03/19 08:47:46;;;;;;;12.98;9.20;;;;;;;2.70;76.28;99161.70;1680882;85;21782;-69
2021/03/19 08:50:36;;;;;;;14.38;10.68;;;;;;;2.72;75.53;99168.54;1681269;82;21608;-68
2021/03/19 08:53:13;;;;;;;20.17;12.53;;;;;;;2.79;74.13;99166.03;1707623;83;22236;-68
2021/03/19 08:55:45;;;;;;;16.25;11.33;;;;;;;2.68;74.98;99168.30;1706738;82;21309;-68
2021/03/19 08:58:35;;;;;;;16.17;11.25;;;;;;;2.65;75.04;99164.55;1702877;83;21918;-69
2021/03/19 09:01:05;;;;;;;15.88;10.63;;;;;;;2.63;75.04;99172.90;1717450;82;21211;-68
2021/03/19 09:03:50;;;;;;;14.78;10.72;;;;;;;2.74;74.87;99174.55;1710248;82;21158;-68
2021/03/19 09:06:23;;;;;;;15.43;10.85;;;;;;;2.67;74.40;99175.75;1707001;84;21206;-68
2021/03/19 09:09:01;;;;;;;20.55;12.55;;;;;;;2.56;74.56;99183.27;1721438;82;21568;-69
2021/03/19 09:11:43;;;;;;;13.80;9.93;;;;;;;2.56;74.39;99171.52;1714771;83;21163;-68
2021/03/19 09:14:15;;;;;;;13.40;10.18;;;;;;;2.63;74.25;99170.28;1715260;82;21176;-69
2021/03/19 09:16:56;;;;;;;16.02;9.68;;;;;;;2.82;74.15;99178.57;1717484;82;21165;-68
2021/03/19 09:19:46;;;;;;;17.87;11.60;;;;;;;2.76;74.41;99171.41;1724350;82;21573;-68
2021/03/19 09:22:31;;;;;;;14.35;9.00;;;;;;;2.64;74.66;99177.20;1686328;83;21289;-68
2021/03/19 09:25:15;;;;;;;12.75;9.45;;;;;;;2.73;74.62;99176.77;1715923;83;21136;-69
2021/03/19 09:28:06;;;;;;;14.18;10.05;;;;;;;2.88;73.90;99184.34;1714944;82;21782;-68
2021/03/19 09:30:44;;;;;;;15.15;8.85;;;;;;;2.88;74.20;99188.73;1710736;84;21281;-68
2021/03/19 09:33:32;;;;;;;14.87;9.28;;;;;;;2.88;73.43;99182.20;1708602;82;21551;-69
2021/03/19 09:36:00;;;;;;;10.48;7.40;;;;;;;2.83;73.16;99185.49;1691482;84;21604;-69
2021/03/19 09:38:34;;;;;;;11.55;8.43;;;;;;;2.86;72.95;99178.80;1704872;82;21158;-69
2021/03/19 09:41:03;;;;;;;;;;;;;;;2.97;72.27;99189.59;1704791;84;21575;-68
2021/03/19 09:43:49;;;;;;;10.53;7.50;;;;;;;2.85;71.89;99181.89;1720558;82;20150;-68
2021/03/19 09:46:29;;;;;;;11.97;8.25;;;;;;;2.71;72.35;99187.77;1744354;82;21345;-68
2021/03/19 09:49:10;;;;;;;12.03;7.65;;;;;;;2.60;72.70;99192.16;1719139;82;21195;-69
2021/03/19 09:51:44;;;;;;;11.85;8.25;;;;;;;2.66;73.11;99198.88;1702268;83;21187;-70
2021/03/19 09:54:34;;;;;;;13.55;9.48;;;;;;;2.82;72.46;99189.02;1706138;82;21182;-69
2021/03/19 09:57:22;;;;;;;12.40;9.63;;;;;;;2.83;72.13;99194.63;1701922;84;21203;-69
2021/03/19 10:00:03;;;;;;;13.10;9.13;;;;;;;2.81;72.08;99189.94;1708144;82;21156;-69
2021/03/19 10:02:38;;;;;;;11.45;7.60;;;;;;;2.75;71.87;99191.05;1736131;82;21182;-68
2021/03/19 10:05:14;;;;;;;11.93;7.78;;;;;;;2.79;72.16;99183.02;1728012;82;21571;-68
2021/03/19 10:07:55;;;;;;;13.10;8.08;;;;;;;3.01;71.69;99200.27;1702746;84;21174;-68
2021/03/19 10:10:41;;;;;;;13.93;8.40;;;;;;;3.07;71.21;99191.28;1676034;84;21167;-68
2021/03/19 10:13:19;;;;;;;10.15;7.22;;;;;;;3.08;71.12;99191.67;1679218;85;21281;-69
2021/03/19 10:15:50;;;;;;;9.95;7.37;;;;;;;3.06;71.36;99198.28;1691175;82;21729;-69
2021/03/19 10:18:32;;;;;;;10.35;6.83;;;;;;;3.08;71.46;99197.77;1705182;82;21198;-69
2021/03/19 10:21:07;;;;;;;9.15;7.33;;;;;;;3.25;70.51;99190.87;1702648;84;21603;-68
2021/03/19 10:23:41;;;;;;;9.93;7.15;;;;;;;3.46;70.36;99204.62;1734523;82;21180;-68
2021/03/19 10:26:34;;;;;;;8.55;6.67;;;;;;;3.52;69.99;99203.50;1736955;82;21333;-69
2021/03/19 10:29:19;;;;;;;9.98;7.30;;;;;;;3.49;69.94;99203.19;1717075;82;21166;-68
2021/03/19 10:31:51;;;;;;;7.58;6.20;;;;;;;3.41;69.89;99202.70;1702645;84;21667;-68
2021/03/19 10:34:37;;;;;;;7.05;5.60;;;;;;;3.44;69.54;99196.87;1707101;82;21659;-68
2021/03/19 10:37:30;;;;;;;7.75;5.67;;;;;;;3.53;67.82;99198.63;1686630;85;21179;-67
2021/03/19 10:40:06;;;;;;;9.40;6.72;;;;;;;3.52;67.68;99195.65;1699530;82;21588;-68
2021/03/19 10:42:57;;;;;;;10.32;7.95;;;;;;;3.49;68.96;99189.25;1702640;84;21199;-68
2021/03/19 10:45:33;;;;;;;10.23;7.08;;;;;;;3.56;69.25;99194.09;1707493;82;21182;-68
2021/03/19 10:48:24;;;;;;;9.88;6.62;;;;;;;3.66;67.74;99193.62;1811991;79;23089;-69
2021/03/19 10:50:57;;;;;;;12.20;8.38;;;;;;;3.67;66.80;99190.09;1790371;79;21544;-69
2021/03/19 10:53:58;;;;;;;11.97;7.30;;;;;;;3.81;67.26;99188.08;1804444;79;21159;-69
2021/03/19 10:56:26;;;;;;;9.78;7.15;;;;;;;3.79;67.67;99186.02;1797838;79;21567;-69
2021/03/19 10:59:08;;;;;;;8.85;7.22;;;;;;;3.82;66.84;99183.23;1744208;80;21168;-69
2021/03/19 11:01:46;;;;;;;10.50;7.10;;;;;;;3.87;67.14;99179.92;1743312;79;22380;-69
2021/03/19 11:04:34;;;;;;;8.25;5.53;;;;;;;3.90;67.20;99182.36;1762721;80;21137;-69
2021/03/19 11:07:29;;;;;;;11.25;6.37;;;;;;;4.03;66.25;99178.20;1754991;80;21337;-70
2021/03/19 11:10:21;;;;;;;12.43;6.80;;;;;;;4.40;65.59;99177.54;1752475;80;21186;-70
2021/03/19 11:12:56;;;;;;;10.40;7.15;;;;;;;4.47;65.14;99185.91;1760098;79;21185;-70
2021/03/19 11:15:33;;;;;;;11.57;7.30;;;;;;;4.41;65.50;99183.61;1765542;80;21153;-68
2021/03/19 11:18:22;;;;;;;10.63;7.60;;;;;;;4.31;65.71;99187.20;1774552;79;21193;-68
2021/03/19 11:21:02;;;;;;;9.60;7.33;;;;;;;4.30;65.97;99184.65;1771531;79;21133;-69
2021/03/19 11:23:37;;;;;;;11.00;7.55;;;;;;;4.24;65.97;99187.97;1770624;80;21161;-69
2021/03/19 11:26:26;;;;;;;9.08;6.33;;;;;;;4.24;65.86;99188.45;1769969;79;21197;-69
2021/03/19 11:29:19;;;;;;;11.90;7.85;;;;;;;4.36;64.26;99185.19;1737847;80;21161;-69
2021/03/19 11:32:07;;;;;;;11.85;7.50;;;;;;;4.43;63.58;99179.15;1759405;79;21137;-68
2021/03/19 11:34:41;;;;;;;8.65;6.58;;;;;;;4.33;63.84;99182.72;1750721;81;21305;-69
2021/03/19 11:37:27;;;;;;;8.18;6.00;;;;;;;4.18;63.65;99184.84;1757845;81;21299;-69
2021/03/19 11:40:19;;;;;;;10.55;7.75;;;;;;;4.08;63.93;99178.80;1743524;81;21182;-69
2021/03/19 11:42:50;;;;;;;9.25;6.78;;;;;;;4.15;64.74;99188.95;1719025;82;21126;-69
2021/03/19 11:45:23;;;;;;;9.73;6.33;;;;;;;4.31;64.19;99185.03;1705651;83;21599;-69
2021/03/19 11:48:02;;;;;;;7.58;5.00;;;;;;;4.41;64.18;99185.78;1706632;82;21637;-68
2021/03/19 11:50:39;;;;;;;9.80;6.45;;;;;;;4.48;63.78;99183.67;1680381;84;21318;-69
2021/03/19 11:53:14;;;;;;;8.88;6.83;;;;;;;4.62;63.52;99178.13;1706151;84;21196;-69
2021/03/19 11:55:51;;;;;;;9.60;6.78;;;;;;;4.75;62.66;99185.23;1712361;82;21714;-70
2021/03/19 11:58:23;;;;;;;8.83;6.80;;;;;;;4.79;62.45;99173.28;1700738;83;21159;-70
2021/03/19 12:00:51;;;;;;;10.70;7.70;;;;;;;4.76;61.12;99175.61;1737099;82;21146;-71
2021/03/19 12:03:26;;;;;;;9.78;6.75;;;;;;;4.78;61.84;99169.80;1672936;83;21201;-70
2021/03/19 12:05:53;;;;;;;8.15;6.03;;;;;;;4.85;61.61;99174.27;1691419;84;21300;-71
2021/03/19 12:08:20;;;;;;;9.48;6.53;;;;;;;4.85;60.35;99176.88;1710175;82;21235;-71
2021/03/19 12:10:51;;;;;;;8.70;6.03;;;;;;;4.78;59.60;99179.45;1672258;86;21203;-70
2021/03/19 12:13:19;;;;;;;8.60;6.12;;;;;;;4.68;59.63;99172.11;1717278;82;21344;-70
2021/03/19 12:15:46;;;;;;;10.48;7.40;;;;;;;4.69;59.13;99169.87;1720721;82;21099;-70
2021/03/19 12:18:15;;;;;;;9.43;6.65;;;;;;;4.77;60.30;99170.77;1704510;84;21177;-70
2021/03/19 12:20:43;;;;;;;8.10;5.58;;;;;;;4.94;58.88;99172.42;1673989;84;21644;-71
2021/03/19 12:23:10;;;;;;;9.58;7.00;;;;;;;5.05;57.20;99163.49;1687019;84;21617;-71
2021/03/19 12:25:38;;;;;;;12.25;7.75;;;;;;;5.11;57.69;99170.63;1705781;82;21191;-70
2021/03/19 12:28:06;;;;;;;12.07;7.50;;;;;;;5.13;58.60;99170.05;1671744;84;21186;-70
2021/03/19 12:30:34;;;;;;;9.63;7.58;;;;;;;5.08;59.09;99172.96;1673511;84;21162;-70
2021/03/19 12:33:01;;;;;;;9.50;7.12;;;;;;;5.09;58.94;99163.69;1701394;83;21158;-70